createdAt,value
2018-04-29T00:00:47.467Z,1008.09
2018-04-29T00:01:47.848Z,1008.21
2018-04-29T00:02:47.881Z,1008.24
2018-04-29T00:03:48.260Z,1008.27
2018-04-29T00:04:48.285Z,1008.27
2018-04-29T00:05:48.294Z,1008.3
2018-04-29T00:06:48.355Z,1008.27
2018-04-29T00:07:48.517Z,1008.24
2018-04-29T00:08:48.638Z,1008.18
2018-04-29T00:09:48.668Z,1008.16
2018-04-29T00:10:48.690Z,1008.11
2018-04-29T00:11:49.111Z,1008.13
2018-04-29T00:12:49.554Z,1008.27
2018-04-29T00:13:49.972Z,1008.31
2018-04-29T00:14:49.998Z,1008.35
2018-04-29T00:15:50.415Z,1008.33
2018-04-29T00:16:50.440Z,1008.29
2018-04-29T00:17:50.649Z,1008.33
2018-04-29T00:18:50.694Z,1008.31
2018-04-29T00:19:50.723Z,1008.35
2018-04-29T00:20:50.760Z,1008.42
2018-04-29T00:21:50.788Z,1008.36
2018-04-29T00:22:50.909Z,1008.37
2018-04-29T00:23:50.937Z,1008.35
2018-04-29T00:24:51.333Z,1008.32
2018-04-29T00:25:51.366Z,1008.3
2018-04-29T00:26:51.725Z,1008.35
2018-04-29T00:27:51.893Z,1008.35
2018-04-29T00:28:51.901Z,1008.4
2018-04-29T00:29:52.370Z,1008.42
2018-04-29T00:30:52.773Z,1008.47
2018-04-29T00:31:52.898Z,1008.49
2018-04-29T00:32:52.980Z,1008.55
2018-04-29T00:33:52.959Z,1008.48
2018-04-29T00:34:53.119Z,1008.54
2018-04-29T00:35:53.155Z,1008.53
2018-04-29T00:36:53.184Z,1008.55
2018-04-29T00:37:53.429Z,1008.53
2018-04-29T00:38:53.453Z,1008.55
2018-04-29T00:39:53.932Z,1008.52
2018-04-29T00:40:53.960Z,1008.54
2018-04-29T00:41:54.091Z,1008.57
2018-04-29T00:42:54.130Z,1008.55
2018-04-29T00:43:54.158Z,1008.59
2018-04-29T00:44:54.198Z,1008.55
2018-04-29T00:45:54.221Z,1008.62
2018-04-29T00:46:54.632Z,1008.67
2018-04-29T00:47:54.690Z,1008.66
2018-04-29T00:48:54.836Z,1008.69
2018-04-29T00:49:55.214Z,1008.7
2018-04-29T00:50:55.281Z,1008.72
2018-04-29T00:51:55.267Z,1008.69
2018-04-29T00:52:55.307Z,1008.74
2018-04-29T00:53:55.469Z,1008.65
2018-04-29T00:54:55.739Z,1008.68
2018-04-29T00:55:55.821Z,1008.68
2018-04-29T00:56:55.838Z,1008.66
2018-04-29T00:57:56.319Z,1008.69
2018-04-29T00:58:56.366Z,1008.72
2018-04-29T00:59:56.801Z,1008.68
2018-04-29T01:00:57.250Z,1008.67
2018-04-29T01:01:57.336Z,1008.69
2018-04-29T01:02:56.931Z,1008.69
2018-04-29T01:03:56.928Z,1008.7
2018-04-29T01:04:57.470Z,1008.69
2018-04-29T01:05:57.556Z,1008.75
2018-04-29T01:06:57.519Z,1008.7
2018-04-29T01:07:57.571Z,1008.71
2018-04-29T01:08:57.572Z,1008.74
2018-04-29T01:09:57.603Z,1008.72
2018-04-29T01:10:57.647Z,1008.75
2018-04-29T01:11:57.667Z,1008.74
2018-04-29T01:12:57.869Z,1008.73
2018-04-29T01:13:57.953Z,1008.73
2018-04-29T01:14:57.917Z,1008.72
2018-04-29T01:15:58.382Z,1008.74
2018-04-29T01:16:58.412Z,1008.71
2018-04-29T01:17:58.465Z,1008.69
2018-04-29T01:18:58.484Z,1008.68
2018-04-29T01:19:58.501Z,1008.72
2018-04-29T01:20:58.552Z,1008.72
2018-04-29T01:21:58.572Z,1008.67
2018-04-29T01:22:59.058Z,1008.74
2018-04-29T01:23:59.141Z,1008.77
2018-04-29T01:24:59.174Z,1008.81
2018-04-29T01:25:59.224Z,1008.81
2018-04-29T01:26:59.473Z,1008.85
2018-04-29T01:27:59.455Z,1008.83
2018-04-29T01:28:59.737Z,1008.9
2018-04-29T01:29:59.926Z,1008.89
2018-04-29T01:31:00.385Z,1008.9
2018-04-29T01:32:00.387Z,1008.89
2018-04-29T01:33:00.842Z,1008.93
2018-04-29T01:34:00.874Z,1008.88
2018-04-29T01:35:00.919Z,1008.83
2018-04-29T01:36:01.165Z,1008.83
2018-04-29T01:37:01.335Z,1008.83
2018-04-29T01:38:01.778Z,1008.79
2018-04-29T01:39:01.805Z,1008.78
2018-04-29T01:40:01.821Z,1008.81
2018-04-29T01:41:02.025Z,1008.78
2018-04-29T01:42:02.022Z,1008.8
2018-04-29T01:43:02.064Z,1008.74
2018-04-29T01:44:02.501Z,1008.77
2018-04-29T01:45:02.534Z,1008.71
2018-04-29T01:46:02.567Z,1008.7
2018-04-29T01:47:02.746Z,1008.72
2018-04-29T01:48:03.045Z,1008.73
2018-04-29T01:49:03.466Z,1008.73
2018-04-29T01:50:03.637Z,1008.73
2018-04-29T01:51:04.088Z,1008.72
2018-04-29T01:52:04.318Z,1008.7
2018-04-29T01:53:04.497Z,1008.71
2018-04-29T01:54:04.527Z,1008.68
2018-04-29T01:55:05.008Z,1008.67
2018-04-29T01:56:05.123Z,1008.65
2018-04-29T01:57:05.159Z,1008.67
2018-04-29T01:58:05.169Z,1008.62
2018-04-29T01:59:05.695Z,1008.63
2018-04-29T02:00:06.030Z,1008.61
2018-04-29T03:00:03.409Z,1008.46
2018-04-29T03:00:58.881Z,1008.54
2018-04-29T03:01:59.035Z,1008.57
2018-04-29T03:02:59.377Z,1008.63
2018-04-29T03:03:59.485Z,1008.61
2018-04-29T03:04:59.915Z,1008.53
2018-04-29T03:06:00.023Z,1008.5
2018-04-29T03:07:00.018Z,1008.48
2018-04-29T03:08:00.048Z,1008.5
2018-04-29T03:09:00.118Z,1008.56
2018-04-29T03:10:00.063Z,1008.53
2018-04-29T03:11:00.274Z,1008.6
2018-04-29T03:12:00.304Z,1008.6
2018-04-29T03:13:00.606Z,1008.53
2018-04-29T03:14:00.712Z,1008.51
2018-04-29T03:15:01.032Z,1008.54
2018-04-29T03:16:01.051Z,1008.55
2018-04-29T03:17:01.394Z,1008.53
2018-04-29T03:18:01.378Z,1008.57
2018-04-29T03:19:01.419Z,1008.54
2018-04-29T03:20:01.874Z,1008.52
2018-04-29T03:21:02.273Z,1008.54
2018-04-29T03:22:02.745Z,1008.56
2018-04-29T03:23:02.784Z,1008.58
2018-04-29T03:24:02.794Z,1008.52
2018-04-29T03:25:02.805Z,1008.51
2018-04-29T03:26:02.894Z,1008.47
2018-04-29T03:27:02.860Z,1008.5
2018-04-29T03:28:03.308Z,1008.52
2018-04-29T03:29:04.295Z,1008.52
2018-04-29T03:30:04.113Z,1008.51
2018-04-29T03:31:04.239Z,1008.46
2018-04-29T03:32:04.257Z,1008.44
2018-04-29T03:33:04.449Z,1008.44
2018-04-29T03:34:04.333Z,1008.39
2018-04-29T03:35:04.371Z,1008.38
2018-04-29T03:36:04.426Z,1008.4
2018-04-29T03:37:04.494Z,1008.44
2018-04-29T03:38:04.452Z,1008.44
2018-04-29T03:39:04.927Z,1008.44
2018-04-29T03:40:05.402Z,1008.52
2018-04-29T03:41:05.415Z,1008.46
2018-04-29T03:42:05.366Z,1008.56
2018-04-29T03:43:05.839Z,1008.57
2018-04-29T03:44:05.852Z,1008.53
2018-04-29T03:45:06.216Z,1008.62
2018-04-29T03:46:06.202Z,1008.69
2018-04-29T03:47:06.224Z,1008.67
2018-04-29T03:48:06.265Z,1008.65
2018-04-29T03:49:06.461Z,1008.67
2018-04-29T03:50:06.326Z,1008.64
2018-04-29T03:51:06.424Z,1008.6
2018-04-29T03:52:06.381Z,1008.59
2018-04-29T03:53:06.419Z,1008.61
2018-04-29T03:54:06.603Z,1008.68
2018-04-29T03:55:06.626Z,1008.67
2018-04-29T03:56:07.322Z,1008.72
2018-04-29T03:57:07.604Z,1008.72
2018-04-29T03:58:07.640Z,1008.73
2018-04-29T03:59:07.767Z,1008.77
2018-04-29T04:00:22.773Z,1008.75
2018-04-29T04:01:22.963Z,1008.74
2018-04-29T04:02:23.138Z,1008.73
2018-04-29T04:03:23.172Z,1008.74
2018-04-29T04:04:23.225Z,1008.71
2018-04-29T04:05:23.245Z,1008.71
2018-04-29T04:06:23.652Z,1008.74
2018-04-29T04:07:23.528Z,1008.75
2018-04-29T04:08:23.458Z,1008.76
2018-04-29T04:09:23.489Z,1008.8
2018-04-29T04:10:23.531Z,1008.85
2018-04-29T04:11:23.551Z,1008.85
2018-04-29T04:12:23.591Z,1008.89
2018-04-29T04:13:23.612Z,1008.88
2018-04-29T04:14:23.989Z,1008.89
2018-04-29T04:15:24.022Z,1008.9
2018-04-29T04:16:24.696Z,1008.96
2018-04-29T04:17:24.610Z,1008.9
2018-04-29T04:18:24.787Z,1008.99
2018-04-29T04:19:24.990Z,1008.89
2018-04-29T04:20:25.211Z,1008.92
2018-04-29T04:21:25.291Z,1008.86
2018-04-29T04:22:25.267Z,1008.88
2018-04-29T04:23:25.312Z,1008.86
2018-04-29T04:24:25.586Z,1008.82
2018-04-29T04:25:25.794Z,1008.86
2018-04-29T04:26:25.861Z,1008.86
2018-04-29T04:27:25.899Z,1008.83
2018-04-29T04:28:26.075Z,1008.84
2018-04-29T04:29:26.592Z,1008.85
2018-04-29T04:30:26.570Z,1008.89
2018-04-29T04:31:26.600Z,1008.91
2018-04-29T04:32:27.038Z,1008.95
2018-04-29T04:33:27.205Z,1008.99
2018-04-29T04:34:27.256Z,1009.04
2018-04-29T04:35:27.674Z,1009.06
2018-04-29T04:36:27.702Z,1009.08
2018-04-29T04:37:27.745Z,1009.1
2018-04-29T04:38:27.803Z,1009.1
2018-04-29T04:39:27.974Z,1009.13
2018-04-29T04:40:28.298Z,1009.17
2018-04-29T04:41:28.411Z,1009.14
2018-04-29T04:42:28.550Z,1009.11
2018-04-29T04:43:28.778Z,1009.12
2018-04-29T04:44:29.219Z,1009.11
2018-04-29T04:45:29.368Z,1009.18
2018-04-29T04:46:29.511Z,1009.14
2018-04-29T04:47:30.104Z,1009.15
2018-04-29T04:48:30.449Z,1009.17
2018-04-29T04:49:30.407Z,1009.17
2018-04-29T04:50:30.445Z,1009.21
2018-04-29T04:51:30.480Z,1009.13
2018-04-29T04:52:30.911Z,1009.15
2018-04-29T04:53:31.339Z,1009.14
2018-04-29T04:54:31.369Z,1009.18
2018-04-29T04:55:31.398Z,1009.19
2018-04-29T04:56:31.427Z,1009.22
2018-04-29T04:57:31.482Z,1009.19
2018-04-29T04:58:31.665Z,1009.26
2018-04-29T04:59:31.808Z,1009.24
2018-04-29T05:00:31.846Z,1009.29
2018-04-29T05:01:31.887Z,1009.26
2018-04-29T05:02:31.905Z,1009.25
2018-04-29T05:03:32.046Z,1009.27
2018-04-29T05:04:32.346Z,1009.27
2018-04-29T05:05:32.493Z,1009.25
2018-04-29T05:06:32.591Z,1009.28
2018-04-29T05:07:32.849Z,1009.26
2018-04-29T05:08:32.588Z,1009.36
2018-04-29T05:09:32.982Z,1009.34
2018-04-29T05:10:32.926Z,1009.34
2018-04-29T05:11:32.948Z,1009.34
2018-04-29T05:12:32.985Z,1009.37
2018-04-29T05:13:33.026Z,1009.36
2018-04-29T05:14:33.050Z,1009.38
2018-04-29T05:15:33.102Z,1009.37
2018-04-29T05:16:33.123Z,1009.37
2018-04-29T05:17:33.531Z,1009.37
2018-04-29T05:18:33.799Z,1009.38
2018-04-29T05:19:33.792Z,1009.33
2018-04-29T05:20:33.939Z,1009.37
2018-04-29T05:21:34.927Z,1009.31
2018-04-29T05:22:34.502Z,1009.37
2018-04-29T05:23:34.536Z,1009.38
2018-04-29T05:24:34.571Z,1009.43
2018-04-29T05:25:34.744Z,1009.46
2018-04-29T05:26:34.739Z,1009.43
2018-04-29T05:27:34.744Z,1009.44
2018-04-29T05:28:34.823Z,1009.45
2018-04-29T05:29:35.290Z,1009.38
2018-04-29T05:30:35.470Z,1009.39
2018-04-29T05:31:35.695Z,1009.33
2018-04-29T05:32:35.736Z,1009.34
2018-04-29T05:33:35.752Z,1009.32
2018-04-29T05:34:35.806Z,1009.33
2018-04-29T05:35:36.246Z,1009.3
2018-04-29T05:36:36.271Z,1009.32
2018-04-29T05:37:36.306Z,1009.3
2018-04-29T05:38:36.472Z,1009.22
2018-04-29T05:39:36.503Z,1009.2
2018-04-29T05:40:36.915Z,1009.15
2018-04-29T05:41:37.105Z,1009.13
2018-04-29T05:42:37.060Z,1009.06
2018-04-29T05:43:37.014Z,1009.07
2018-04-29T05:44:37.204Z,1009.1
2018-04-29T05:45:37.173Z,1009.05
2018-04-29T05:46:37.203Z,1009.05
2018-04-29T05:47:37.233Z,1009.01
2018-04-29T05:48:37.432Z,1009.13
2018-04-29T05:49:37.464Z,1009.21
2018-04-29T05:50:37.701Z,1009.12
2018-04-29T05:51:37.915Z,1009.18
2018-04-29T05:52:38.041Z,1009.13
2018-04-29T05:53:38.079Z,1009.18
2018-04-29T05:54:38.183Z,1009.19
2018-04-29T05:55:38.144Z,1009.1
2018-04-29T05:56:38.241Z,1009.07
2018-04-29T05:57:38.211Z,1008.96
2018-04-29T05:58:38.519Z,1009.03
2018-04-29T05:59:38.935Z,1009.05
2018-04-29T06:00:38.857Z,1009.11
2018-04-29T06:01:38.882Z,1009.15
2018-04-29T06:02:38.638Z,1009.2
2018-04-29T06:03:38.677Z,1009.13
2018-04-29T06:04:38.723Z,1009.17
2018-04-29T06:05:39.178Z,1009.12
2018-04-29T06:06:39.548Z,1009.17
2018-04-29T06:07:39.483Z,1009.32
2018-04-29T06:08:39.280Z,1009.13
2018-04-29T06:09:39.713Z,1009.14
2018-04-29T06:10:39.643Z,1009.2
2018-04-29T06:11:39.972Z,1009.19
2018-04-29T06:12:40.294Z,1009.12
2018-04-29T06:13:40.281Z,1009.09
2018-04-29T06:14:40.144Z,1009.08
2018-04-29T06:15:40.135Z,1009.09
2018-04-29T06:16:40.149Z,1009.04
2018-04-29T06:17:40.499Z,1009.13
2018-04-29T06:18:40.536Z,1009.03
2018-04-29T06:19:40.251Z,1009.05
2018-04-29T06:20:40.458Z,1009.04
2018-04-29T06:21:40.364Z,1009.04
2018-04-29T06:22:40.675Z,1009.07
2018-04-29T06:23:40.757Z,1008.98
2018-04-29T06:24:41.671Z,1008.96
2018-04-29T06:25:41.696Z,1009.17
2018-04-29T06:26:41.834Z,1009.18
2018-04-29T06:27:41.689Z,1009.29
2018-04-29T06:28:41.741Z,1009.34
2018-04-29T06:29:41.732Z,1009.1
2018-04-29T06:30:41.673Z,1009.17
2018-04-29T06:31:42.050Z,1009.38
2018-04-29T06:32:42.101Z,1009.27
2018-04-29T06:33:41.790Z,1009.26
2018-04-29T06:34:42.114Z,1009.17
2018-04-29T06:35:42.171Z,1009.13
2018-04-29T06:36:41.995Z,1009.16
2018-04-29T06:37:41.963Z,1009.09
2018-04-29T06:38:42.473Z,1009.2
2018-04-29T06:39:42.201Z,1009.2
2018-04-29T06:40:42.336Z,1009.2
2018-04-29T06:41:42.240Z,1009.17
2018-04-29T06:42:42.289Z,1009.12
2018-04-29T06:43:42.471Z,1009.13
2018-04-29T06:44:42.657Z,1009.07
2018-04-29T06:45:42.396Z,1008.99
2018-04-29T06:46:42.587Z,1008.98
2018-04-29T06:47:42.750Z,1008.97
2018-04-29T06:48:42.728Z,1008.99
2018-04-29T06:49:42.815Z,1008.98
2018-04-29T06:50:42.600Z,1009.07
2018-04-29T06:51:42.814Z,1009.05
2018-04-29T06:52:42.645Z,1009.11
2018-04-29T06:53:42.656Z,1009.17
2018-04-29T06:54:42.719Z,1009.17
2018-04-29T06:55:42.900Z,1009.25
2018-04-29T06:56:42.792Z,1009.34
2018-04-29T06:57:42.875Z,1009.37
2018-04-29T06:58:43.004Z,1009.48
2018-04-29T06:59:42.979Z,1009.47
2018-04-29T08:00:12.211Z,1009.07
2018-04-29T08:01:12.406Z,1009.05
2018-04-29T08:02:12.419Z,1009.13
2018-04-29T08:03:12.927Z,1009.09
2018-04-29T08:04:13.361Z,1009.13
2018-04-29T08:05:13.490Z,1009.11
2018-04-29T08:06:13.523Z,1009.03
2018-04-29T08:07:13.555Z,1008.96
2018-04-29T08:08:13.866Z,1008.95
2018-04-29T08:09:13.631Z,1009.02
2018-04-29T08:10:13.661Z,1009.02
2018-04-29T08:11:13.826Z,1009.02
2018-04-29T08:12:13.888Z,1009.03
2018-04-29T08:13:14.065Z,1008.93
2018-04-29T08:14:14.079Z,1008.97
2018-04-29T08:15:14.248Z,1008.66
2018-04-29T08:16:14.280Z,1008.77
2018-04-29T08:17:14.438Z,1008.33
2018-04-29T08:18:14.473Z,1008.31
2018-04-29T08:19:14.496Z,1008.28
2018-04-29T08:20:14.602Z,1008.32
2018-04-29T08:21:14.584Z,1008.33
2018-04-29T08:22:14.620Z,1008.83
2018-04-29T08:23:15.054Z,1008.42
2018-04-29T08:24:15.529Z,1008.71
2018-04-29T08:25:15.548Z,1009.07
2018-04-29T08:26:15.766Z,1009.18
2018-04-29T08:27:15.962Z,1009.23
2018-04-29T08:28:16.295Z,1009.24
2018-04-29T08:29:16.383Z,1009.3
2018-04-29T08:30:16.346Z,1009.32
2018-04-29T08:31:16.482Z,1009.33
2018-04-29T08:32:16.429Z,1009.34
2018-04-29T08:33:16.535Z,1009.26
2018-04-29T08:34:16.555Z,1009.29
2018-04-29T08:35:16.577Z,1009.31
2018-04-29T08:36:17.504Z,1009.22
2018-04-29T08:37:17.693Z,1009.26
2018-04-29T08:38:17.699Z,1009.28
2018-04-29T08:39:17.449Z,1009.26
2018-04-29T08:40:17.528Z,1009.28
2018-04-29T08:41:17.547Z,1009.34
2018-04-29T08:42:17.694Z,1009.4
2018-04-29T08:43:17.793Z,1009.47
2018-04-29T08:44:17.822Z,1009.52
2018-04-29T08:45:17.824Z,1009.49
2018-04-29T08:46:17.956Z,1009.38
2018-04-29T08:47:18.122Z,1009.28
2018-04-29T08:48:18.284Z,1009.32
2018-04-29T08:49:18.326Z,1009.33
2018-04-29T08:50:18.442Z,1009.36
2018-04-29T08:51:18.471Z,1009.38
2018-04-29T08:52:18.450Z,1009.34
2018-04-29T08:53:18.482Z,1009.35
2018-04-29T08:54:18.532Z,1009.37
2018-04-29T08:55:18.575Z,1009.32
2018-04-29T08:56:18.956Z,1009.34
2018-04-29T08:57:19.008Z,1009.29
2018-04-29T08:58:19.038Z,1009.14
2018-04-29T08:59:19.401Z,1009
2018-04-29T09:00:19.437Z,1008.88
2018-04-29T09:01:19.482Z,1008.8
2018-04-29T09:02:19.598Z,1008.82
2018-04-29T09:03:19.634Z,1008.76
2018-04-29T09:04:19.671Z,1008.72
2018-04-29T09:05:19.822Z,1008.72
2018-04-29T09:06:19.860Z,1008.7
2018-04-29T09:07:19.897Z,1008.73
2018-04-29T09:08:20.256Z,1008.69
2018-04-29T09:09:20.652Z,1008.71
2018-04-29T09:10:21.050Z,1008.73
2018-04-29T09:11:21.009Z,1008.67
2018-04-29T09:12:21.058Z,1008.64
2018-04-29T09:13:21.087Z,1008.66
2018-04-29T09:14:21.484Z,1008.7
2018-04-29T09:15:21.519Z,1008.79
2018-04-29T09:16:21.940Z,1008.89
2018-04-29T09:17:22.059Z,1008.99
2018-04-29T09:18:22.085Z,1009.11
2018-04-29T09:19:22.222Z,1009.21
2018-04-29T09:20:22.653Z,1009.17
2018-04-29T09:21:22.699Z,1009.1
2018-04-29T09:22:22.840Z,1009.05
2018-04-29T09:23:22.941Z,1009.05
2018-04-29T09:24:22.984Z,1009.07
2018-04-29T09:25:23.395Z,1009.11
2018-04-29T09:26:23.549Z,1009.11
2018-04-29T09:27:23.940Z,1009.11
2018-04-29T09:28:24.365Z,1009.14
2018-04-29T09:29:24.515Z,1009.21
2018-04-29T09:30:25.463Z,1009.16
2018-04-29T09:31:25.857Z,1009.16
2018-04-29T09:32:26.008Z,1009.2
2018-04-29T09:33:26.388Z,1009.17
2018-04-29T09:34:26.483Z,1009.16
2018-04-29T09:35:26.542Z,1009.1
2018-04-29T09:36:26.485Z,1009.09
2018-04-29T09:37:26.865Z,1009.11
2018-04-29T09:38:27.302Z,1008.87
2018-04-29T09:39:27.872Z,1008.61
2018-04-29T09:40:27.870Z,1008.51
2018-04-29T09:41:27.913Z,1008.49
2018-04-29T09:42:28.081Z,1008.57
2018-04-29T09:43:28.499Z,1008.53
2018-04-29T09:44:28.400Z,1008.58
2018-04-29T09:45:28.673Z,1008.59
2018-04-29T09:46:28.709Z,1008.56
2018-04-29T09:47:28.887Z,1008.56
2018-04-29T09:48:28.912Z,1008.56
2018-04-29T09:49:28.961Z,1008.52
2018-04-29T09:50:28.983Z,1008.54
2018-04-29T09:51:29.175Z,1008.51
2018-04-29T09:52:29.206Z,1008.53
2018-04-29T09:53:29.238Z,1008.49
2018-04-29T09:54:29.735Z,1008.5
2018-04-29T09:55:29.731Z,1008.58
2018-04-29T09:56:29.768Z,1008.58
2018-04-29T09:57:29.823Z,1008.5
2018-04-29T09:58:29.868Z,1008.5
2018-04-29T09:59:30.481Z,1008.49
2018-04-29T10:00:31.870Z,1008.48
2018-04-29T10:01:30.859Z,1008.46
2018-04-29T11:00:04.617Z,1008.21
2018-04-29T11:00:58.431Z,1008.11
2018-04-29T11:01:58.486Z,1008.11
2018-04-29T11:02:58.270Z,1008.09
2018-04-29T11:03:58.460Z,1008.11
2018-04-29T11:04:58.490Z,1008.05
2018-04-29T11:05:58.682Z,1008.05
2018-04-29T11:06:58.936Z,1008.09
2018-04-29T11:07:58.862Z,1008.15
2018-04-29T11:08:59.231Z,1008.17
2018-04-29T11:09:59.246Z,1008.1
2018-04-29T11:10:59.283Z,1008.1
2018-04-29T11:11:59.322Z,1008.09
2018-04-29T11:12:59.486Z,1008.11
2018-04-29T11:13:59.396Z,1008.09
2018-04-29T11:14:59.608Z,1008.09
2018-04-29T11:15:59.647Z,1008
2018-04-29T11:16:59.870Z,1008.07
2018-04-29T11:17:59.790Z,1008.04
2018-04-29T11:19:00.243Z,1008
2018-04-29T11:20:00.507Z,1008.05
2018-04-29T11:21:00.356Z,1007.94
2018-04-29T11:22:00.362Z,1007.95
2018-04-29T11:23:00.412Z,1008.01
2018-04-29T11:24:00.836Z,1007.99
2018-04-29T11:25:00.929Z,1007.94
2018-04-29T11:26:01.319Z,1007.92
2018-04-29T11:27:01.384Z,1007.89
2018-04-29T11:28:01.573Z,1007.97
2018-04-29T11:29:01.716Z,1007.87
2018-04-29T11:30:02.785Z,1007.88
2018-04-29T11:31:02.526Z,1007.9
2018-04-29T11:32:02.641Z,1007.93
2018-04-29T11:33:02.960Z,1007.82
2018-04-29T11:34:03.568Z,1007.87
2018-04-29T11:35:03.673Z,1007.84
2018-04-29T11:36:03.815Z,1007.88
2018-04-29T11:37:03.583Z,1007.83
2018-04-29T11:38:03.619Z,1007.79
2018-04-29T11:39:03.671Z,1007.79
2018-04-29T11:40:03.688Z,1007.75
2018-04-29T11:41:03.756Z,1007.76
2018-04-29T11:42:03.795Z,1007.79
2018-04-29T11:43:04.053Z,1007.77
2018-04-29T11:44:03.838Z,1007.79
2018-04-29T11:45:04.295Z,1007.74
2018-04-29T11:46:04.310Z,1007.74
2018-04-29T11:47:04.665Z,1007.71
2018-04-29T11:48:04.366Z,1007.63
2018-04-29T11:49:04.424Z,1007.69
2018-04-29T11:50:04.657Z,1007.72
2018-04-29T11:51:04.651Z,1007.68
2018-04-29T11:52:04.715Z,1007.66
2018-04-29T11:53:04.958Z,1007.7
2018-04-29T11:54:05.303Z,1007.7
2018-04-29T11:55:05.004Z,1007.68
2018-04-29T11:56:05.428Z,1007.65
2018-04-29T11:57:05.558Z,1007.63
2018-04-29T11:58:05.452Z,1007.64
2018-04-29T11:59:05.488Z,1007.63
2018-04-29T12:00:11.889Z,1007.58
2018-04-29T12:01:05.531Z,1007.55
2018-04-29T12:02:05.586Z,1007.6
2018-04-29T12:03:05.613Z,1007.52
2018-04-29T12:04:05.689Z,1007.52
2018-04-29T12:05:05.690Z,1007.54
2018-04-29T12:06:06.111Z,1007.52
2018-04-29T12:07:06.282Z,1007.53
2018-04-29T12:08:06.315Z,1007.48
2018-04-29T12:09:06.344Z,1007.48
2018-04-29T12:10:06.376Z,1007.46
2018-04-29T12:11:06.689Z,1007.44
2018-04-29T12:12:06.452Z,1007.43
2018-04-29T12:13:06.926Z,1007.44
2018-04-29T12:14:06.982Z,1007.45
2018-04-29T12:15:06.990Z,1007.4
2018-04-29T12:16:07.045Z,1007.44
2018-04-29T12:17:07.702Z,1007.45
2018-04-29T12:18:07.719Z,1007.39
2018-04-29T12:19:08.404Z,1007.35
2018-04-29T12:20:08.066Z,1007.41
2018-04-29T12:21:08.105Z,1007.37
2018-04-29T12:22:08.135Z,1007.37
2018-04-29T12:23:08.525Z,1007.38
2018-04-29T12:24:08.664Z,1007.38
2018-04-29T12:25:08.678Z,1007.39
2018-04-29T12:26:08.701Z,1007.33
2018-04-29T12:27:08.678Z,1007.3
2018-04-29T12:28:08.734Z,1007.35
2018-04-29T12:29:09.001Z,1007.31
2018-04-29T12:30:08.796Z,1007.31
2018-04-29T12:31:08.929Z,1007.28
2018-04-29T12:32:09.426Z,1007.32
2018-04-29T12:33:09.729Z,1007.28
2018-04-29T12:34:09.937Z,1007.25
2018-04-29T12:35:10.342Z,1007.22
2018-04-29T12:36:10.535Z,1007.28
2018-04-29T12:37:10.565Z,1007.29
2018-04-29T12:38:10.623Z,1007.26
2018-04-29T12:39:11.009Z,1007.21
2018-04-29T12:40:11.030Z,1007.24
2018-04-29T12:41:11.199Z,1007.13
2018-04-29T12:42:11.515Z,1007.15
2018-04-29T12:43:11.497Z,1007.19
2018-04-29T12:44:11.524Z,1007.26
2018-04-29T12:45:11.679Z,1007.14
2018-04-29T12:46:11.710Z,1007.17
2018-04-29T12:47:12.139Z,1007.12
2018-04-29T12:48:12.183Z,1007.19
2018-04-29T12:49:12.575Z,1007.13
2018-04-29T12:50:12.620Z,1007.17
2018-04-29T12:51:12.719Z,1007.16
2018-04-29T12:52:12.792Z,1007.12
2018-04-29T12:53:12.784Z,1007.09
2018-04-29T12:54:12.822Z,1007.05
2018-04-29T12:55:13.224Z,1007.06
2018-04-29T12:56:13.397Z,1007.02
2018-04-29T12:57:13.453Z,1007
2018-04-29T12:58:13.493Z,1007.04
2018-04-29T12:59:13.590Z,1007.02
2018-04-29T13:00:14.059Z,1006.94
2018-04-29T13:01:14.068Z,1006.99
2018-04-29T13:02:14.105Z,1006.95
2018-04-29T13:03:14.148Z,1006.92
2018-04-29T13:04:14.182Z,1006.89
2018-04-29T13:05:14.246Z,1006.88
2018-04-29T13:06:14.482Z,1006.85
2018-04-29T13:07:14.558Z,1006.8
2018-04-29T13:08:14.756Z,1006.9
2018-04-29T13:09:15.205Z,1006.83
2018-04-29T13:10:14.916Z,1006.82
2018-04-29T13:11:14.915Z,1006.86
2018-04-29T13:12:14.910Z,1006.79
2018-04-29T13:13:15.035Z,1006.78
2018-04-29T13:14:14.981Z,1006.72
2018-04-29T13:15:15.057Z,1006.74
2018-04-29T13:16:15.157Z,1006.73
2018-04-29T13:17:15.376Z,1006.7
2018-04-29T13:18:15.263Z,1006.73
2018-04-29T13:19:15.918Z,1006.73
2018-04-29T13:20:16.197Z,1006.67
2018-04-29T13:21:16.110Z,1006.69
2018-04-29T13:22:16.209Z,1006.73
2018-04-29T13:23:16.228Z,1006.73
2018-04-29T13:24:16.220Z,1006.7
2018-04-29T13:25:16.015Z,1006.74
2018-04-29T13:26:16.172Z,1006.68
2018-04-29T13:27:16.144Z,1006.66
2018-04-29T13:28:16.122Z,1006.64
2018-04-29T13:29:16.234Z,1006.68
2018-04-29T13:30:16.322Z,1006.6
2018-04-29T13:31:16.321Z,1006.59
2018-04-29T13:32:16.572Z,1006.57
2018-04-29T13:33:17.276Z,1006.54
2018-04-29T13:34:17.053Z,1006.51
2018-04-29T13:35:17.283Z,1006.53
2018-04-29T13:36:17.088Z,1006.59
2018-04-29T13:37:17.859Z,1006.61
2018-04-29T13:38:17.745Z,1006.57
2018-04-29T13:39:18.383Z,1006.55
2018-04-29T13:40:18.611Z,1006.57
2018-04-29T13:41:18.461Z,1006.56
2018-04-29T13:42:18.409Z,1006.55
2018-04-29T13:43:18.412Z,1006.5
2018-04-29T13:44:18.754Z,1006.49
2018-04-29T13:45:18.697Z,1006.47
2018-04-29T13:46:18.697Z,1006.49
2018-04-29T13:47:18.728Z,1006.5
2018-04-29T13:48:18.760Z,1006.42
2018-04-29T13:49:18.849Z,1006.43
2018-04-29T13:50:18.948Z,1006.43
2018-04-29T13:51:19.237Z,1006.45
2018-04-29T13:52:20.015Z,1006.37
2018-04-29T13:53:19.758Z,1006.37
2018-04-29T13:54:19.798Z,1006.37
2018-04-29T13:55:19.943Z,1006.31
2018-04-29T13:56:20.094Z,1006.27
2018-04-29T13:57:20.029Z,1006.25
2018-04-29T13:58:20.058Z,1006.23
2018-04-29T13:59:20.491Z,1006.29
2018-04-29T14:00:20.525Z,1006.24
2018-04-29T14:01:20.567Z,1006.21
2018-04-29T14:02:20.796Z,1006.3
2018-04-29T14:03:20.903Z,1006.26
2018-04-29T14:04:21.102Z,1006.25
2018-04-29T14:05:20.909Z,1006.22
2018-04-29T14:06:20.958Z,1006.21
2018-04-29T14:07:21.034Z,1006.16
2018-04-29T14:08:21.007Z,1006.21
2018-04-29T14:09:21.420Z,1006.13
2018-04-29T14:10:21.577Z,1006.17
2018-04-29T14:11:21.569Z,1006.11
2018-04-29T14:12:21.663Z,1006.13
2018-04-29T14:13:21.745Z,1006.11
2018-04-29T14:14:21.908Z,1006.05
2018-04-29T14:15:21.941Z,1006.02
2018-04-29T14:16:22.150Z,1006.02
2018-04-29T14:17:22.190Z,1006.03
2018-04-29T14:18:22.240Z,1006
2018-04-29T14:19:22.965Z,1006.01
2018-04-29T14:20:23.000Z,1006.05
2018-04-29T14:21:23.029Z,1006.03
2018-04-29T14:22:23.072Z,1006
2018-04-29T14:23:23.109Z,1005.95
2018-04-29T14:24:23.389Z,1005.95
2018-04-29T14:25:23.428Z,1005.93
2018-04-29T14:26:23.459Z,1005.95
2018-04-29T14:27:23.500Z,1005.93
2018-04-29T14:28:23.534Z,1005.94
2018-04-29T14:29:23.570Z,1005.95
2018-04-29T14:30:23.608Z,1005.96
2018-04-29T14:31:23.999Z,1005.86
2018-04-29T14:32:24.068Z,1005.88
2018-04-29T14:33:24.316Z,1005.86
2018-04-29T14:34:24.792Z,1005.9
2018-04-29T14:35:24.831Z,1005.92
2018-04-29T14:36:24.860Z,1005.84
2018-04-29T14:37:25.165Z,1005.87
2018-04-29T14:38:25.199Z,1005.86
2018-04-29T14:39:25.239Z,1005.9
2018-04-29T14:40:25.281Z,1005.85
2018-04-29T14:41:25.313Z,1005.86
2018-04-29T14:42:25.353Z,1005.84
2018-04-29T14:43:25.376Z,1005.87
2018-04-29T14:44:25.419Z,1005.86
2018-04-29T14:45:25.664Z,1005.8
2018-04-29T14:46:26.143Z,1005.86
2018-04-29T14:47:26.176Z,1005.83
2018-04-29T14:48:26.219Z,1005.73
2018-04-29T14:49:26.376Z,1005.75
2018-04-29T14:50:26.356Z,1005.76
2018-04-29T14:51:26.415Z,1005.73
2018-04-29T14:52:26.430Z,1005.76
2018-04-29T14:53:26.973Z,1005.74
2018-04-29T14:54:27.238Z,1005.74
2018-04-29T14:55:26.964Z,1005.73
2018-04-29T14:56:27.359Z,1005.68
2018-04-29T14:57:27.354Z,1005.66
2018-04-29T14:58:27.563Z,1005.69
2018-04-29T14:59:27.994Z,1005.62
2018-04-29T15:00:28.007Z,1005.64
2018-04-29T15:01:28.416Z,1005.69
2018-04-29T15:02:28.405Z,1005.62
2018-04-29T15:03:28.579Z,1005.62
2018-04-29T15:04:28.855Z,1005.6
2018-04-29T15:05:29.045Z,1005.62
2018-04-29T15:06:29.213Z,1005.55